sensor_id;sensor_type;location;lat;lon;timestamp;P1;durP1;ratioP1;P2;durP2;ratioP2
5363;SDS011;2705;41.410;2.160;2023-12-20T00:01:39;19.43;;;10.20;;
5363;SDS011;2705;41.410;2.160;2023-12-20T00:04:08;23.47;;;11.97;;
5363;SDS011;2705;41.410;2.160;2023-12-20T00:06:37;16.80;;;9.60;;
5363;SDS011;2705;41.410;2.160;2023-12-20T00:09:06;16.07;;;10.37;;
5363;SDS011;2705;41.410;2.160;2023-12-20T00:11:35;18.63;;;10.60;;
5363;SDS011;2705;41.410;2.160;2023-12-20T00:14:05;21.77;;;10.50;;
5363;SDS011;2705;41.410;2.160;2023-12-20T00:16:34;18.63;;;10.77;;
5363;SDS011;2705;41.410;2.160;2023-12-20T00:19:04;20.70;;;10.40;;
5363;SDS011;2705;41.410;2.160;2023-12-20T00:21:35;21.97;;;11.27;;
5363;SDS011;2705;41.410;2.160;2023-12-20T00:24:04;18.10;;;11.80;;
5363;SDS011;2705;41.410;2.160;2023-12-20T00:26:33;16.20;;;9.70;;
5363;SDS011;2705;41.410;2.160;2023-12-20T00:29:03;20.60;;;10.13;;
5363;SDS011;2705;41.410;2.160;2023-12-20T00:31:32;15.57;;;9.00;;
5363;SDS011;2705;41.410;2.160;2023-12-20T00:34:01;11.57;;;7.80;;
5363;SDS011;2705;41.410;2.160;2023-12-20T00:36:31;11.50;;;7.90;;
5363;SDS011;2705;41.410;2.160;2023-12-20T00:39:00;15.23;;;8.80;;
5363;SDS011;2705;41.410;2.160;2023-12-20T00:41:30;17.47;;;9.50;;
5363;SDS011;2705;41.410;2.160;2023-12-20T00:43:59;15.30;;;9.10;;
5363;SDS011;2705;41.410;2.160;2023-12-20T00:46:28;11.80;;;8.80;;
5363;SDS011;2705;41.410;2.160;2023-12-20T00:48:57;11.83;;;8.30;;
5363;SDS011;2705;41.410;2.160;2023-12-20T00:51:26;13.80;;;9.27;;
5363;SDS011;2705;41.410;2.160;2023-12-20T00:53:57;12.10;;;8.47;;
5363;SDS011;2705;41.410;2.160;2023-12-20T00:56:26;12.33;;;8.53;;
5363;SDS011;2705;41.410;2.160;2023-12-20T00:58:55;13.90;;;9.37;;
5363;SDS011;2705;41.410;2.160;2023-12-20T01:01:24;27.43;;;14.80;;
5363;SDS011;2705;41.410;2.160;2023-12-20T01:03:53;51.53;;;29.13;;
5363;SDS011;2705;41.410;2.160;2023-12-20T01:06:22;17.13;;;10.87;;
5363;SDS011;2705;41.410;2.160;2023-12-20T01:08:51;12.27;;;8.10;;
5363;SDS011;2705;41.410;2.160;2023-12-20T01:11:22;13.47;;;9.67;;
5363;SDS011;2705;41.410;2.160;2023-12-20T01:13:51;15.17;;;9.70;;
5363;SDS011;2705;41.410;2.160;2023-12-20T01:16:20;17.13;;;9.93;;
5363;SDS011;2705;41.410;2.160;2023-12-20T01:18:49;14.43;;;8.70;;
5363;SDS011;2705;41.410;2.160;2023-12-20T01:21:18;17.53;;;9.53;;
5363;SDS011;2705;41.410;2.160;2023-12-20T01:23:47;11.97;;;8.87;;
5363;SDS011;2705;41.410;2.160;2023-12-20T01:26:16;14.67;;;8.67;;
5363;SDS011;2705;41.410;2.160;2023-12-20T01:28:47;12.90;;;8.93;;
5363;SDS011;2705;41.410;2.160;2023-12-20T01:31:16;14.50;;;9.00;;
5363;SDS011;2705;41.410;2.160;2023-12-20T01:33:45;14.37;;;8.93;;
5363;SDS011;2705;41.410;2.160;2023-12-20T01:36:14;13.90;;;8.50;;
5363;SDS011;2705;41.410;2.160;2023-12-20T01:38:43;14.20;;;9.30;;
5363;SDS011;2705;41.410;2.160;2023-12-20T01:41:12;12.47;;;9.20;;
5363;SDS011;2705;41.410;2.160;2023-12-20T01:43:42;15.00;;;10.30;;
5363;SDS011;2705;41.410;2.160;2023-12-20T01:46:19;13.90;;;9.40;;
5363;SDS011;2705;41.410;2.160;2023-12-20T01:48:49;15.07;;;9.33;;
5363;SDS011;2705;41.410;2.160;2023-12-20T01:51:19;13.63;;;10.00;;
5363;SDS011;2705;41.410;2.160;2023-12-20T01:53:48;14.40;;;9.63;;
5363;SDS011;2705;41.410;2.160;2023-12-20T01:56:18;12.97;;;9.67;;
5363;SDS011;2705;41.410;2.160;2023-12-20T01:58:48;15.87;;;10.63;;
5363;SDS011;2705;41.410;2.160;2023-12-20T02:04:20;17.03;;;10.13;;
5363;SDS011;2705;41.410;2.160;2023-12-20T02:06:50;18.63;;;10.53;;
5363;SDS011;2705;41.410;2.160;2023-12-20T02:09:21;15.40;;;10.60;;
5363;SDS011;2705;41.410;2.160;2023-12-20T02:11:51;13.23;;;9.70;;
5363;SDS011;2705;41.410;2.160;2023-12-20T02:14:20;17.03;;;10.90;;
5363;SDS011;2705;41.410;2.160;2023-12-20T02:16:50;19.70;;;11.73;;
5363;SDS011;2705;41.410;2.160;2023-12-20T02:19:19;14.13;;;9.90;;
5363;SDS011;2705;41.410;2.160;2023-12-20T02:21:51;16.80;;;10.20;;
5363;SDS011;2705;41.410;2.160;2023-12-20T02:24:34;14.63;;;9.33;;
5363;SDS011;2705;41.410;2.160;2023-12-20T02:27:03;17.33;;;9.93;;
5363;SDS011;2705;41.410;2.160;2023-12-20T02:29:34;14.73;;;9.20;;
5363;SDS011;2705;41.410;2.160;2023-12-20T02:32:04;11.60;;;8.80;;
5363;SDS011;2705;41.410;2.160;2023-12-20T02:34:34;15.00;;;10.00;;
5363;SDS011;2705;41.410;2.160;2023-12-20T02:37:04;11.73;;;8.60;;
5363;SDS011;2705;41.410;2.160;2023-12-20T02:39:34;15.33;;;9.10;;
5363;SDS011;2705;41.410;2.160;2023-12-20T02:42:03;18.20;;;9.37;;
5363;SDS011;2705;41.410;2.160;2023-12-20T02:44:32;13.73;;;8.80;;
5363;SDS011;2705;41.410;2.160;2023-12-20T02:47:01;18.70;;;8.93;;
5363;SDS011;2705;41.410;2.160;2023-12-20T02:49:31;13.97;;;9.90;;
5363;SDS011;2705;41.410;2.160;2023-12-20T02:52:00;16.47;;;10.27;;
5363;SDS011;2705;41.410;2.160;2023-12-20T02:54:30;14.90;;;9.80;;
5363;SDS011;2705;41.410;2.160;2023-12-20T02:56:59;18.17;;;10.23;;
5363;SDS011;2705;41.410;2.160;2023-12-20T02:59:30;16.53;;;10.47;;
5363;SDS011;2705;41.410;2.160;2023-12-20T03:01:59;14.40;;;10.10;;
5363;SDS011;2705;41.410;2.160;2023-12-20T03:04:28;14.90;;;10.20;;
5363;SDS011;2705;41.410;2.160;2023-12-20T03:06:58;15.30;;;10.33;;
5363;SDS011;2705;41.410;2.160;2023-12-20T03:09:27;15.07;;;10.10;;
5363;SDS011;2705;41.410;2.160;2023-12-20T03:12:05;15.90;;;10.57;;
5363;SDS011;2705;41.410;2.160;2023-12-20T03:14:35;17.03;;;10.10;;
5363;SDS011;2705;41.410;2.160;2023-12-20T03:17:04;14.80;;;9.80;;
5363;SDS011;2705;41.410;2.160;2023-12-20T03:19:33;16.70;;;10.97;;
5363;SDS011;2705;41.410;2.160;2023-12-20T03:22:02;19.70;;;10.33;;
5363;SDS011;2705;41.410;2.160;2023-12-20T03:24:31;16.43;;;11.27;;
5363;SDS011;2705;41.410;2.160;2023-12-20T03:27:00;16.77;;;9.63;;
5363;SDS011;2705;41.410;2.160;2023-12-20T03:29:30;17.87;;;10.73;;
5363;SDS011;2705;41.410;2.160;2023-12-20T03:32:00;17.40;;;10.40;;
5363;SDS011;2705;41.410;2.160;2023-12-20T03:34:29;21.50;;;11.00;;
5363;SDS011;2705;41.410;2.160;2023-12-20T03:36:58;18.17;;;10.90;;
5363;SDS011;2705;41.410;2.160;2023-12-20T03:39:27;25.63;;;11.90;;
5363;SDS011;2705;41.410;2.160;2023-12-20T03:41:56;20.33;;;10.87;;
5363;SDS011;2705;41.410;2.160;2023-12-20T03:44:25;17.33;;;10.50;;
5363;SDS011;2705;41.410;2.160;2023-12-20T03:46:56;21.57;;;11.03;;
5363;SDS011;2705;41.410;2.160;2023-12-20T03:49:25;20.23;;;11.23;;
5363;SDS011;2705;41.410;2.160;2023-12-20T03:51:54;19.67;;;11.23;;
5363;SDS011;2705;41.410;2.160;2023-12-20T03:54:23;20.73;;;12.30;;
5363;SDS011;2705;41.410;2.160;2023-12-20T03:56:52;18.80;;;11.70;;
5363;SDS011;2705;41.410;2.160;2023-12-20T03:59:21;21.00;;;11.80;;
5363;SDS011;2705;41.410;2.160;2023-12-20T04:01:50;22.00;;;12.17;;
5363;SDS011;2705;41.410;2.160;2023-12-20T04:04:21;21.23;;;12.57;;
5363;SDS011;2705;41.410;2.160;2023-12-20T04:06:50;23.60;;;13.27;;
5363;SDS011;2705;41.410;2.160;2023-12-20T04:09:20;18.13;;;12.20;;
5363;SDS011;2705;41.410;2.160;2023-12-20T04:11:49;17.40;;;11.07;;
5363;SDS011;2705;41.410;2.160;2023-12-20T04:14:18;18.90;;;11.47;;
5363;SDS011;2705;41.410;2.160;2023-12-20T04:16:47;23.10;;;12.70;;
5363;SDS011;2705;41.410;2.160;2023-12-20T04:19:16;17.70;;;11.87;;
5363;SDS011;2705;41.410;2.160;2023-12-20T04:21:47;19.00;;;12.17;;
5363;SDS011;2705;41.410;2.160;2023-12-20T04:24:16;16.40;;;10.70;;
5363;SDS011;2705;41.410;2.160;2023-12-20T04:26:45;22.77;;;13.77;;
5363;SDS011;2705;41.410;2.160;2023-12-20T04:29:14;22.90;;;12.83;;
5363;SDS011;2705;41.410;2.160;2023-12-20T04:31:43;20.40;;;13.20;;
5363;SDS011;2705;41.410;2.160;2023-12-20T04:34:12;20.93;;;12.70;;
5363;SDS011;2705;41.410;2.160;2023-12-20T04:36:41;20.40;;;14.03;;
5363;SDS011;2705;41.410;2.160;2023-12-20T04:39:12;23.77;;;14.90;;
5363;SDS011;2705;41.410;2.160;2023-12-20T04:41:42;27.83;;;13.93;;
5363;SDS011;2705;41.410;2.160;2023-12-20T04:44:11;22.17;;;13.37;;
5363;SDS011;2705;41.410;2.160;2023-12-20T04:46:40;25.27;;;14.57;;
5363;SDS011;2705;41.410;2.160;2023-12-20T04:49:09;19.80;;;13.67;;
5363;SDS011;2705;41.410;2.160;2023-12-20T04:51:38;18.07;;;12.77;;
5363;SDS011;2705;41.410;2.160;2023-12-20T04:54:07;19.00;;;13.80;;
5363;SDS011;2705;41.410;2.160;2023-12-20T04:56:39;19.73;;;13.00;;
5363;SDS011;2705;41.410;2.160;2023-12-20T04:59:08;19.00;;;12.37;;
5363;SDS011;2705;41.410;2.160;2023-12-20T05:01:37;18.37;;;12.30;;
5363;SDS011;2705;41.410;2.160;2023-12-20T05:04:06;16.80;;;11.63;;
5363;SDS011;2705;41.410;2.160;2023-12-20T05:06:35;18.40;;;12.70;;
5363;SDS011;2705;41.410;2.160;2023-12-20T05:09:04;16.23;;;10.90;;
5363;SDS011;2705;41.410;2.160;2023-12-20T05:11:33;17.17;;;11.83;;
5363;SDS011;2705;41.410;2.160;2023-12-20T05:14:04;18.50;;;11.83;;
5363;SDS011;2705;41.410;2.160;2023-12-20T05:16:34;18.70;;;12.53;;
5363;SDS011;2705;41.410;2.160;2023-12-20T05:19:03;20.80;;;12.70;;
5363;SDS011;2705;41.410;2.160;2023-12-20T05:21:34;21.13;;;12.20;;
5363;SDS011;2705;41.410;2.160;2023-12-20T05:24:03;22.53;;;12.13;;
5363;SDS011;2705;41.410;2.160;2023-12-20T05:26:33;20.57;;;13.93;;
5363;SDS011;2705;41.410;2.160;2023-12-20T05:29:03;18.10;;;12.13;;
5363;SDS011;2705;41.410;2.160;2023-12-20T05:31:32;24.30;;;14.00;;
5363;SDS011;2705;41.410;2.160;2023-12-20T05:34:02;22.23;;;14.10;;
5363;SDS011;2705;41.410;2.160;2023-12-20T05:36:31;20.80;;;14.97;;
5363;SDS011;2705;41.410;2.160;2023-12-20T05:39:00;26.70;;;16.60;;
5363;SDS011;2705;41.410;2.160;2023-12-20T05:41:30;25.47;;;15.30;;
5363;SDS011;2705;41.410;2.160;2023-12-20T05:43:59;27.23;;;16.27;;
5363;SDS011;2705;41.410;2.160;2023-12-20T05:46:30;23.47;;;14.43;;
5363;SDS011;2705;41.410;2.160;2023-12-20T05:48:59;25.57;;;15.00;;
5363;SDS011;2705;41.410;2.160;2023-12-20T05:51:29;23.90;;;14.73;;
5363;SDS011;2705;41.410;2.160;2023-12-20T05:53:58;21.30;;;14.53;;
5363;SDS011;2705;41.410;2.160;2023-12-20T05:56:27;28.00;;;15.50;;
5363;SDS011;2705;41.410;2.160;2023-12-20T05:58:56;25.83;;;16.77;;
5363;SDS011;2705;41.410;2.160;2023-12-20T06:01:25;21.87;;;14.60;;
5363;SDS011;2705;41.410;2.160;2023-12-20T06:03:56;22.40;;;14.83;;
5363;SDS011;2705;41.410;2.160;2023-12-20T06:06:25;22.57;;;14.10;;
5363;SDS011;2705;41.410;2.160;2023-12-20T06:08:54;21.50;;;14.37;;
5363;SDS011;2705;41.410;2.160;2023-12-20T06:11:23;27.03;;;14.80;;
5363;SDS011;2705;41.410;2.160;2023-12-20T06:13:52;19.67;;;12.20;;
5363;SDS011;2705;41.410;2.160;2023-12-20T06:16:22;21.03;;;13.23;;
5363;SDS011;2705;41.410;2.160;2023-12-20T06:18:51;18.20;;;12.57;;
5363;SDS011;2705;41.410;2.160;2023-12-20T06:21:22;22.00;;;13.23;;
5363;SDS011;2705;41.410;2.160;2023-12-20T06:23:51;16.83;;;11.77;;
5363;SDS011;2705;41.410;2.160;2023-12-20T06:26:20;15.97;;;11.23;;
5363;SDS011;2705;41.410;2.160;2023-12-20T06:28:49;18.20;;;11.13;;
5363;SDS011;2705;41.410;2.160;2023-12-20T06:31:18;18.03;;;11.60;;
5363;SDS011;2705;41.410;2.160;2023-12-20T06:33:48;18.80;;;11.40;;
5363;SDS011;2705;41.410;2.160;2023-12-20T06:36:26;17.00;;;10.33;;
5363;SDS011;2705;41.410;2.160;2023-12-20T06:38:55;24.03;;;10.90;;
5363;SDS011;2705;41.410;2.160;2023-12-20T06:41:24;18.23;;;12.50;;
5363;SDS011;2705;41.410;2.160;2023-12-20T06:43:53;16.80;;;10.27;;
5363;SDS011;2705;41.410;2.160;2023-12-20T06:46:22;14.47;;;9.73;;
5363;SDS011;2705;41.410;2.160;2023-12-20T06:48:52;20.77;;;10.57;;
5363;SDS011;2705;41.410;2.160;2023-12-20T06:51:21;19.87;;;11.70;;
5363;SDS011;2705;41.410;2.160;2023-12-20T06:53:53;18.17;;;10.03;;
5363;SDS011;2705;41.410;2.160;2023-12-20T06:56:23;23.27;;;10.97;;
5363;SDS011;2705;41.410;2.160;2023-12-20T06:58:52;16.50;;;10.80;;
5363;SDS011;2705;41.410;2.160;2023-12-20T07:01:21;17.33;;;11.10;;
5363;SDS011;2705;41.410;2.160;2023-12-20T07:03:50;20.00;;;11.40;;
5363;SDS011;2705;41.410;2.160;2023-12-20T07:06:19;17.00;;;11.40;;
5363;SDS011;2705;41.410;2.160;2023-12-20T07:08:52;16.30;;;11.07;;
5363;SDS011;2705;41.410;2.160;2023-12-20T07:11:22;15.10;;;11.20;;
5363;SDS011;2705;41.410;2.160;2023-12-20T07:13:51;18.10;;;11.60;;
5363;SDS011;2705;41.410;2.160;2023-12-20T07:16:21;22.03;;;10.60;;
5363;SDS011;2705;41.410;2.160;2023-12-20T07:18:50;18.50;;;9.80;;
5363;SDS011;2705;41.410;2.160;2023-12-20T07:21:19;18.70;;;12.47;;
5363;SDS011;2705;41.410;2.160;2023-12-20T07:23:48;11.27;;;8.30;;
5363;SDS011;2705;41.410;2.160;2023-12-20T07:26:19;14.33;;;8.07;;
5363;SDS011;2705;41.410;2.160;2023-12-20T07:28:48;15.27;;;7.77;;
5363;SDS011;2705;41.410;2.160;2023-12-20T07:31:17;11.07;;;7.80;;
5363;SDS011;2705;41.410;2.160;2023-12-20T07:33:46;9.70;;;7.50;;
5363;SDS011;2705;41.410;2.160;2023-12-20T07:36:16;10.00;;;7.30;;
5363;SDS011;2705;41.410;2.160;2023-12-20T07:38:45;12.10;;;8.03;;
5363;SDS011;2705;41.410;2.160;2023-12-20T07:41:14;23.00;;;12.70;;
5363;SDS011;2705;41.410;2.160;2023-12-20T07:43:45;10.30;;;6.77;;
5363;SDS011;2705;41.410;2.160;2023-12-20T07:46:14;11.67;;;7.30;;
5363;SDS011;2705;41.410;2.160;2023-12-20T07:48:45;9.47;;;6.67;;
5363;SDS011;2705;41.410;2.160;2023-12-20T07:51:14;10.23;;;7.10;;
5363;SDS011;2705;41.410;2.160;2023-12-20T07:53:44;8.60;;;6.00;;
5363;SDS011;2705;41.410;2.160;2023-12-20T07:56:13;11.40;;;6.33;;
5363;SDS011;2705;41.410;2.160;2023-12-20T07:58:45;6.60;;;5.20;;
5363;SDS011;2705;41.410;2.160;2023-12-20T08:01:19;10.90;;;6.40;;
5363;SDS011;2705;41.410;2.160;2023-12-20T08:03:49;8.70;;;6.47;;
5363;SDS011;2705;41.410;2.160;2023-12-20T08:06:19;15.47;;;6.90;;
5363;SDS011;2705;41.410;2.160;2023-12-20T08:08:49;9.53;;;7.10;;
5363;SDS011;2705;41.410;2.160;2023-12-20T08:11:28;12.40;;;9.07;;
5363;SDS011;2705;41.410;2.160;2023-12-20T08:13:59;19.27;;;8.80;;
5363;SDS011;2705;41.410;2.160;2023-12-20T08:16:28;16.07;;;7.70;;
5363;SDS011;2705;41.410;2.160;2023-12-20T08:18:57;11.10;;;8.60;;
5363;SDS011;2705;41.410;2.160;2023-12-20T08:21:27;12.63;;;8.07;;
5363;SDS011;2705;41.410;2.160;2023-12-20T08:23:58;13.00;;;8.40;;
5363;SDS011;2705;41.410;2.160;2023-12-20T08:26:28;11.77;;;7.53;;
5363;SDS011;2705;41.410;2.160;2023-12-20T08:28:59;10.73;;;7.37;;
5363;SDS011;2705;41.410;2.160;2023-12-20T08:31:28;16.10;;;9.30;;
5363;SDS011;2705;41.410;2.160;2023-12-20T08:33:57;11.90;;;7.87;;
5363;SDS011;2705;41.410;2.160;2023-12-20T08:36:27;11.77;;;8.40;;
5363;SDS011;2705;41.410;2.160;2023-12-20T08:38:56;15.03;;;7.40;;
5363;SDS011;2705;41.410;2.160;2023-12-20T08:41:25;11.30;;;6.50;;
5363;SDS011;2705;41.410;2.160;2023-12-20T08:43:54;15.77;;;9.40;;
5363;SDS011;2705;41.410;2.160;2023-12-20T08:46:24;12.20;;;6.70;;
5363;SDS011;2705;41.410;2.160;2023-12-20T08:48:54;20.63;;;7.73;;
5363;SDS011;2705;41.410;2.160;2023-12-20T08:51:23;14.53;;;6.93;;
5363;SDS011;2705;41.410;2.160;2023-12-20T08:53:53;10.13;;;6.53;;
5363;SDS011;2705;41.410;2.160;2023-12-20T08:56:22;11.77;;;7.23;;
5363;SDS011;2705;41.410;2.160;2023-12-20T08:58:51;9.17;;;6.60;;
5363;SDS011;2705;41.410;2.160;2023-12-20T09:01:24;18.97;;;9.43;;
5363;SDS011;2705;41.410;2.160;2023-12-20T09:03:53;9.10;;;6.83;;
5363;SDS011;2705;41.410;2.160;2023-12-20T09:06:40;12.20;;;8.00;;
5363;SDS011;2705;41.410;2.160;2023-12-20T09:09:09;9.13;;;6.80;;
5363;SDS011;2705;41.410;2.160;2023-12-20T09:11:40;13.43;;;7.80;;
5363;SDS011;2705;41.410;2.160;2023-12-20T09:14:10;11.13;;;7.00;;
5363;SDS011;2705;41.410;2.160;2023-12-20T09:16:41;10.23;;;6.20;;
5363;SDS011;2705;41.410;2.160;2023-12-20T09:19:10;11.80;;;7.67;;
5363;SDS011;2705;41.410;2.160;2023-12-20T09:21:39;14.57;;;8.17;;
5363;SDS011;2705;41.410;2.160;2023-12-20T09:24:08;17.57;;;9.43;;
5363;SDS011;2705;41.410;2.160;2023-12-20T09:26:38;15.40;;;10.07;;
5363;SDS011;2705;41.410;2.160;2023-12-20T09:29:07;22.83;;;10.87;;
5363;SDS011;2705;41.410;2.160;2023-12-20T09:31:37;19.03;;;9.53;;
5363;SDS011;2705;41.410;2.160;2023-12-20T09:34:08;25.80;;;10.50;;
5363;SDS011;2705;41.410;2.160;2023-12-20T09:36:37;19.53;;;9.70;;
5363;SDS011;2705;41.410;2.160;2023-12-20T09:39:13;15.57;;;9.60;;
5363;SDS011;2705;41.410;2.160;2023-12-20T09:41:44;19.13;;;9.60;;
5363;SDS011;2705;41.410;2.160;2023-12-20T09:44:14;19.97;;;9.97;;
5363;SDS011;2705;41.410;2.160;2023-12-20T09:46:45;20.73;;;10.80;;
5363;SDS011;2705;41.410;2.160;2023-12-20T09:49:20;17.63;;;9.87;;
5363;SDS011;2705;41.410;2.160;2023-12-20T09:51:50;35.93;;;11.83;;
5363;SDS011;2705;41.410;2.160;2023-12-20T09:54:20;13.43;;;7.50;;
5363;SDS011;2705;41.410;2.160;2023-12-20T09:56:51;11.83;;;7.77;;
5363;SDS011;2705;41.410;2.160;2023-12-20T09:59:20;10.70;;;7.47;;
5363;SDS011;2705;41.410;2.160;2023-12-20T10:01:49;15.40;;;9.33;;
5363;SDS011;2705;41.410;2.160;2023-12-20T10:04:24;15.80;;;10.67;;
5363;SDS011;2705;41.410;2.160;2023-12-20T10:06:56;21.17;;;13.80;;
5363;SDS011;2705;41.410;2.160;2023-12-20T10:09:33;22.67;;;10.33;;
5363;SDS011;2705;41.410;2.160;2023-12-20T10:12:03;22.40;;;9.83;;
5363;SDS011;2705;41.410;2.160;2023-12-20T10:14:33;28.80;;;15.63;;
5363;SDS011;2705;41.410;2.160;2023-12-20T10:17:03;21.17;;;10.33;;
5363;SDS011;2705;41.410;2.160;2023-12-20T10:19:33;17.97;;;10.47;;
5363;SDS011;2705;41.410;2.160;2023-12-20T10:22:04;15.00;;;9.60;;
5363;SDS011;2705;41.410;2.160;2023-12-20T10:24:33;21.93;;;10.43;;
5363;SDS011;2705;41.410;2.160;2023-12-20T10:27:02;15.97;;;10.30;;
5363;SDS011;2705;41.410;2.160;2023-12-20T10:29:32;27.30;;;11.83;;
5363;SDS011;2705;41.410;2.160;2023-12-20T10:34:54;24.80;;;10.80;;
5363;SDS011;2705;41.410;2.160;2023-12-20T10:37:24;27.27;;;10.90;;
5363;SDS011;2705;41.410;2.160;2023-12-20T10:39:54;22.33;;;9.83;;
5363;SDS011;2705;41.410;2.160;2023-12-20T10:42:26;15.70;;;8.13;;
5363;SDS011;2705;41.410;2.160;2023-12-20T10:44:56;14.13;;;9.17;;
5363;SDS011;2705;41.410;2.160;2023-12-20T10:47:26;11.90;;;7.80;;
5363;SDS011;2705;41.410;2.160;2023-12-20T10:50:00;13.90;;;7.80;;
5363;SDS011;2705;41.410;2.160;2023-12-20T10:52:33;13.43;;;7.43;;
5363;SDS011;2705;41.410;2.160;2023-12-20T10:55:04;11.43;;;7.23;;
5363;SDS011;2705;41.410;2.160;2023-12-20T10:57:34;19.93;;;6.80;;
5363;SDS011;2705;41.410;2.160;2023-12-20T11:00:05;13.23;;;8.67;;
5363;SDS011;2705;41.410;2.160;2023-12-20T11:02:42;15.23;;;5.87;;
5363;SDS011;2705;41.410;2.160;2023-12-20T11:05:16;11.40;;;7.33;;
5363;SDS011;2705;41.410;2.160;2023-12-20T11:07:54;14.30;;;6.87;;
5363;SDS011;2705;41.410;2.160;2023-12-20T11:10:30;19.80;;;10.57;;
5363;SDS011;2705;41.410;2.160;2023-12-20T11:13:17;45.70;;;10.77;;
5363;SDS011;2705;41.410;2.160;2023-12-20T11:15:50;21.20;;;10.60;;
5363;SDS011;2705;41.410;2.160;2023-12-20T11:18:20;14.70;;;9.80;;
5363;SDS011;2705;41.410;2.160;2023-12-20T11:21:01;18.27;;;10.17;;
5363;SDS011;2705;41.410;2.160;2023-12-20T11:23:33;17.30;;;10.90;;
5363;SDS011;2705;41.410;2.160;2023-12-20T11:26:03;21.70;;;11.57;;
5363;SDS011;2705;41.410;2.160;2023-12-20T11:28:32;21.80;;;11.03;;
5363;SDS011;2705;41.410;2.160;2023-12-20T11:31:02;24.47;;;12.63;;
5363;SDS011;2705;41.410;2.160;2023-12-20T11:33:35;21.70;;;11.30;;
5363;SDS011;2705;41.410;2.160;2023-12-20T11:36:13;26.60;;;14.13;;
5363;SDS011;2705;41.410;2.160;2023-12-20T11:38:53;26.20;;;15.57;;
5363;SDS011;2705;41.410;2.160;2023-12-20T11:41:25;24.83;;;8.57;;
5363;SDS011;2705;41.410;2.160;2023-12-20T11:43:54;18.73;;;7.00;;
5363;SDS011;2705;41.410;2.160;2023-12-20T11:46:24;14.00;;;7.20;;
5363;SDS011;2705;41.410;2.160;2023-12-20T11:48:54;20.33;;;8.20;;
5363;SDS011;2705;41.410;2.160;2023-12-20T11:51:25;16.87;;;8.43;;
5363;SDS011;2705;41.410;2.160;2023-12-20T11:53:55;19.07;;;8.37;;
5363;SDS011;2705;41.410;2.160;2023-12-20T11:56:24;14.80;;;8.33;;
5363;SDS011;2705;41.410;2.160;2023-12-20T11:58:53;11.93;;;6.97;;
5363;SDS011;2705;41.410;2.160;2023-12-20T12:01:35;12.10;;;6.60;;
5363;SDS011;2705;41.410;2.160;2023-12-20T12:04:05;8.00;;;6.00;;
5363;SDS011;2705;41.410;2.160;2023-12-20T12:06:36;12.23;;;6.40;;
5363;SDS011;2705;41.410;2.160;2023-12-20T12:09:06;13.60;;;6.53;;
5363;SDS011;2705;41.410;2.160;2023-12-20T12:11:35;11.93;;;6.23;;
5363;SDS011;2705;41.410;2.160;2023-12-20T12:14:04;13.30;;;6.20;;
5363;SDS011;2705;41.410;2.160;2023-12-20T12:16:34;15.10;;;8.50;;
5363;SDS011;2705;41.410;2.160;2023-12-20T12:19:04;20.70;;;8.50;;
5363;SDS011;2705;41.410;2.160;2023-12-20T12:21:33;15.70;;;7.80;;
5363;SDS011;2705;41.410;2.160;2023-12-20T12:24:10;18.70;;;7.23;;
5363;SDS011;2705;41.410;2.160;2023-12-20T12:26:39;13.23;;;7.73;;
5363;SDS011;2705;41.410;2.160;2023-12-20T12:29:08;12.00;;;8.07;;
5363;SDS011;2705;41.410;2.160;2023-12-20T12:31:37;15.70;;;7.90;;
5363;SDS011;2705;41.410;2.160;2023-12-20T12:34:07;16.00;;;8.00;;
5363;SDS011;2705;41.410;2.160;2023-12-20T12:36:36;10.20;;;7.20;;
5363;SDS011;2705;41.410;2.160;2023-12-20T12:39:05;6.87;;;5.00;;
5363;SDS011;2705;41.410;2.160;2023-12-20T12:41:36;9.23;;;5.53;;
5363;SDS011;2705;41.410;2.160;2023-12-20T12:44:05;10.63;;;6.00;;
5363;SDS011;2705;41.410;2.160;2023-12-20T12:46:44;11.00;;;6.67;;
5363;SDS011;2705;41.410;2.160;2023-12-20T12:49:13;11.30;;;6.43;;
5363;SDS011;2705;41.410;2.160;2023-12-20T12:51:43;9.60;;;5.30;;
5363;SDS011;2705;41.410;2.160;2023-12-20T12:54:12;14.50;;;9.17;;
5363;SDS011;2705;41.410;2.160;2023-12-20T12:56:44;6.77;;;5.23;;
5363;SDS011;2705;41.410;2.160;2023-12-20T12:59:14;16.43;;;6.63;;
5363;SDS011;2705;41.410;2.160;2023-12-20T13:01:43;12.67;;;6.27;;
5363;SDS011;2705;41.410;2.160;2023-12-20T13:04:12;23.90;;;8.53;;
5363;SDS011;2705;41.410;2.160;2023-12-20T13:06:42;21.23;;;9.80;;
5363;SDS011;2705;41.410;2.160;2023-12-20T13:09:11;17.67;;;9.47;;
5363;SDS011;2705;41.410;2.160;2023-12-20T13:11:40;38.93;;;9.90;;
5363;SDS011;2705;41.410;2.160;2023-12-20T13:14:11;21.33;;;10.00;;
5363;SDS011;2705;41.410;2.160;2023-12-20T13:16:42;23.40;;;9.43;;
5363;SDS011;2705;41.410;2.160;2023-12-20T13:19:12;25.93;;;11.53;;
5363;SDS011;2705;41.410;2.160;2023-12-20T13:21:42;18.17;;;10.30;;
5363;SDS011;2705;41.410;2.160;2023-12-20T13:24:11;27.73;;;11.33;;
5363;SDS011;2705;41.410;2.160;2023-12-20T13:26:40;26.03;;;11.80;;
5363;SDS011;2705;41.410;2.160;2023-12-20T13:29:10;23.43;;;11.57;;
5363;SDS011;2705;41.410;2.160;2023-12-20T13:31:40;32.03;;;12.97;;
5363;SDS011;2705;41.410;2.160;2023-12-20T13:34:09;24.93;;;9.77;;
5363;SDS011;2705;41.410;2.160;2023-12-20T13:36:39;20.23;;;10.43;;
5363;SDS011;2705;41.410;2.160;2023-12-20T13:39:08;19.03;;;9.90;;
5363;SDS011;2705;41.410;2.160;2023-12-20T13:41:37;19.13;;;9.27;;
5363;SDS011;2705;41.410;2.160;2023-12-20T13:44:06;12.33;;;7.70;;
5363;SDS011;2705;41.410;2.160;2023-12-20T13:46:37;10.97;;;7.30;;
5363;SDS011;2705;41.410;2.160;2023-12-20T13:49:06;16.23;;;7.60;;
5363;SDS011;2705;41.410;2.160;2023-12-20T13:51:36;14.07;;;8.27;;
5363;SDS011;2705;41.410;2.160;2023-12-20T13:54:05;15.30;;;8.00;;
5363;SDS011;2705;41.410;2.160;2023-12-20T13:56:34;26.67;;;11.70;;
5363;SDS011;2705;41.410;2.160;2023-12-20T13:59:18;26.47;;;9.37;;
5363;SDS011;2705;41.410;2.160;2023-12-20T14:01:48;18.80;;;10.23;;
5363;SDS011;2705;41.410;2.160;2023-12-20T14:04:18;18.70;;;10.47;;
5363;SDS011;2705;41.410;2.160;2023-12-20T14:07:07;27.00;;;11.53;;
5363;SDS011;2705;41.410;2.160;2023-12-20T14:09:39;20.97;;;9.90;;
5363;SDS011;2705;41.410;2.160;2023-12-20T14:12:13;26.00;;;11.23;;
5363;SDS011;2705;41.410;2.160;2023-12-20T14:14:42;21.47;;;10.97;;
5363;SDS011;2705;41.410;2.160;2023-12-20T14:17:13;28.37;;;12.10;;
5363;SDS011;2705;41.410;2.160;2023-12-20T14:19:42;22.67;;;11.57;;
5363;SDS011;2705;41.410;2.160;2023-12-20T14:22:12;21.20;;;11.70;;
5363;SDS011;2705;41.410;2.160;2023-12-20T14:24:44;18.47;;;11.60;;
5363;SDS011;2705;41.410;2.160;2023-12-20T14:27:13;17.57;;;10.60;;
5363;SDS011;2705;41.410;2.160;2023-12-20T14:29:43;26.30;;;11.00;;
5363;SDS011;2705;41.410;2.160;2023-12-20T14:32:12;19.73;;;11.30;;
5363;SDS011;2705;41.410;2.160;2023-12-20T14:34:43;30.23;;;11.87;;
5363;SDS011;2705;41.410;2.160;2023-12-20T14:37:12;28.63;;;12.93;;
5363;SDS011;2705;41.410;2.160;2023-12-20T14:39:41;24.10;;;10.70;;
5363;SDS011;2705;41.410;2.160;2023-12-20T14:42:10;27.80;;;11.00;;
5363;SDS011;2705;41.410;2.160;2023-12-20T14:44:40;24.83;;;12.10;;
5363;SDS011;2705;41.410;2.160;2023-12-20T14:47:10;26.17;;;11.37;;
5363;SDS011;2705;41.410;2.160;2023-12-20T14:49:42;25.37;;;12.33;;
5363;SDS011;2705;41.410;2.160;2023-12-20T14:52:12;29.77;;;15.30;;
5363;SDS011;2705;41.410;2.160;2023-12-20T14:54:41;25.83;;;12.33;;
5363;SDS011;2705;41.410;2.160;2023-12-20T14:57:10;25.77;;;13.17;;
5363;SDS011;2705;41.410;2.160;2023-12-20T14:59:39;30.73;;;13.17;;
5363;SDS011;2705;41.410;2.160;2023-12-20T15:02:10;24.77;;;12.93;;
5363;SDS011;2705;41.410;2.160;2023-12-20T15:04:39;25.17;;;13.20;;
5363;SDS011;2705;41.410;2.160;2023-12-20T15:07:10;27.80;;;14.10;;
5363;SDS011;2705;41.410;2.160;2023-12-20T15:09:39;32.20;;;13.73;;
5363;SDS011;2705;41.410;2.160;2023-12-20T15:12:13;22.83;;;14.00;;
5363;SDS011;2705;41.410;2.160;2023-12-20T15:14:42;25.13;;;12.90;;
5363;SDS011;2705;41.410;2.160;2023-12-20T15:17:11;21.60;;;12.97;;
5363;SDS011;2705;41.410;2.160;2023-12-20T15:19:41;35.10;;;13.17;;